Decoded Metar for LFQA (REIMS in FRANCE) (IATA:N/A) | Meteo·Mobile Aviation Weather
aviador You're here:

LFQA Decoded Metar

REIMS in FRANCE
Report Time2018-10-17 04:30:00
UTC Time2018-10-17 04:59:49
Flight Rules mvfr MVFR
Wind320° at 02 kt
W.Decomp.*RWY 25: 0.7 kt HW 1.9 kt RCW
W.Rank320° ranks 8
Current wind is below 320° avg. (6.5)
Visibility6000 m
Phenomena:N/A
Clouds:N/A
Expected CloudBase > 400 ft AGL from Temp-Dew spread
CeilingNone
Temp05°C (ISA -9)
Dew Point04°C (93% RH)
AAT3.0°C
QNH1018 hPa
Density Alt-879 ft
Elevation312 ft
Report Wrong Elevation
Raw Report
METAR LFQA 170430Z AUTO 32002KT 6000 NSC 05/04 Q1018=

Extra information for LFQA:More info

Metar Taf Metar & Taf Last 4 Metars F.Rules Stats Wind Profile Meteogram Temp Stats Airport Information Weather charts Add Link Nearby VenuesMetar ALERT Operation Metar Decoded Social comments